Terminal Aerodrome Forecast
Issued by NWS

Home | Current Version | Previous Version | Text Only | Print | Product List | Glossary On
Versions: 1 2 3 4 5 6 7 8 9 10 11 12 13 14 15 16 17 18 19 20 21 22 23 24 25 26
000
FTUS45 KREV 300916 AAA
TAFTVL
TAF AMD
KTVL 300916Z 3009/3106 19012G20KT P6SM -SHRA SCT030 BKN060
     FM301100 20014G30KT 5SM -SHRA BKN030 OVC050 WS020/30045KT
     FM301500 20022G37KT 1 1/2SM -RASN BKN015 OVC030
     FM301600 06011G20KT P6SM FEW030 BKN045
     FM310200 03008KT P6SM SCT050=

USA.gov is the U.S. government's official web portal to all federal, state and local government web resources and services.